Time;durP1;ratioP1;P1;durP2;ratioP2;P2;SDS_P1;SDS_P2;PMS_P1;PMS_P2;Temp;Humidity;BMP_temperature;BMP_pressure;BME280_temperature;BME280_humidity;BME280_pressure;Samples;Min_cycle;Max_cycle;Signal;HPM_P1;HPM_P2
2023/05/08 00:01:44;;;;;;;4.72;3.28;;;;;19.40;101900.00;;;;5051667;28;20230;-76
2023/05/08 00:04:12;;;;;;;3.25;2.95;;;;;19.40;101897.00;;;;5058113;28;20294;-76
2023/05/08 00:06:39;;;;;;;3.47;3.17;;;;;19.40;101900.00;;;;5059433;28;20672;-76
2023/05/08 00:09:08;;;;;;;3.63;3.33;;;;;19.40;101896.00;;;;5050969;28;20214;-76
2023/05/08 00:11:35;;;;;;;3.83;3.45;;;;;19.40;101904.00;;;;5051251;28;20203;-76
2023/05/08 00:14:02;;;;;;;4.80;3.22;;;;;19.40;101900.00;;;;5058152;28;20195;-76
2023/05/08 00:16:31;;;;;;;3.60;3.30;;;;;19.40;101900.00;;;;5054107;28;20191;-76
2023/05/08 00:18:58;;;;;;;3.78;3.08;;;;;19.40;101893.00;;;;5057721;28;20207;-76
2023/05/08 00:21:25;;;;;;;4.05;3.30;;;;;19.40;101887.00;;;;5059810;28;20617;-76
2023/05/08 00:23:53;;;;;;;3.20;3.00;;;;;19.40;101885.00;;;;5051158;28;20192;-77
2023/05/08 00:26:21;;;;;;;3.30;3.00;;;;;19.40;101883.00;;;;5049995;28;20946;-77
2023/05/08 00:28:49;;;;;;;3.60;3.30;;;;;19.40;101880.00;;;;5056116;28;20203;-76
2023/05/08 00:31:16;;;;;;;5.88;2.67;;;;;19.40;101886.00;;;;5061796;28;20199;-77
2023/05/08 00:33:43;;;;;;;3.05;2.75;;;;;19.40;101887.00;;;;5067919;28;20230;-77
2023/05/08 00:36:11;;;;;;;4.90;3.78;;;;;19.40;101886.00;;;;5061335;28;20210;-76
2023/05/08 00:38:38;;;;;;;3.45;3.15;;;;;19.40;101884.00;;;;5052358;28;20234;-76
2023/05/08 00:41:05;;;;;;;3.58;3.05;;;;;19.40;101880.00;;;;5057374;28;20199;-76
2023/05/08 00:43:36;;;;;;;3.95;3.13;;;;;19.40;101887.00;;;;5057730;28;20227;-76
2023/05/08 00:46:03;;;;;;;6.70;3.42;;;;;19.40;101875.00;;;;5050451;28;20317;-76
2023/05/08 00:48:32;;;;;;;3.58;3.28;;;;;19.40;101875.00;;;;5058018;28;20203;-77
2023/05/08 00:51:00;;;;;;;5.13;3.58;;;;;19.40;101878.00;;;;5052722;28;20204;-77
2023/05/08 00:53:30;;;;;;;2.97;2.75;;;;;19.40;101875.00;;;;5050280;28;20203;-76
2023/05/08 00:55:58;;;;;;;3.70;3.40;;;;;19.40;101876.00;;;;5058007;28;20245;-77
2023/05/08 00:58:27;;;;;;;3.65;3.35;;;;;19.40;101873.00;;;;5049998;28;20570;-76
2023/05/08 01:00:56;;;;;;;3.55;3.25;;;;;19.40;101884.00;;;;5057325;28;20207;-76
2023/05/08 01:03:24;;;;;;;3.67;3.08;;;;;19.40;101882.00;;;;5051412;28;20223;-76
2023/05/08 01:05:52;;;;;;;4.20;3.63;;;;;19.40;101885.00;;;;5050768;28;20213;-76
2023/05/08 01:08:19;;;;;;;4.15;3.75;;;;;19.30;101882.00;;;;5052691;28;20203;-77
2023/05/08 01:10:54;;;;;;;6.03;4.07;;;;;19.30;101884.00;;;;5051678;28;20650;-77
2023/05/08 01:13:30;;;;;;;4.13;3.83;;;;;19.20;101878.00;;;;5054840;28;20535;-76
2023/05/08 01:16:06;;;;;;;4.35;3.95;;;;;19.20;101877.00;;;;5058016;28;20202;-77
2023/05/08 01:18:39;;;;;;;5.05;3.65;;;;;19.20;101881.00;;;;5050347;28;20187;-77
2023/05/08 01:21:13;;;;;;;4.20;3.80;;;;;19.20;101879.00;;;;5055466;28;20196;-76
2023/05/08 01:24:15;;;;;;;4.40;4.00;;;;;19.10;101879.00;;;;5054700;28;20242;-77
2023/05/08 01:27:08;;;;;;;4.25;3.85;;;;;19.10;101874.00;;;;5055823;28;20252;-76
2023/05/08 01:30:03;;;;;;;5.20;3.78;;;;;19.10;101875.00;;;;5051067;28;20188;-76
2023/05/08 01:32:36;;;;;;;4.80;4.38;;;;;19.10;101876.00;;;;5056328;28;20194;-77
2023/05/08 01:35:12;;;;;;;5.05;3.88;;;;;19.10;101872.00;;;;5053337;28;20231;-76
2023/05/08 01:37:45;;;;;;;4.88;4.40;;;;;19.10;101878.00;;;;5053280;28;20203;-77
2023/05/08 01:40:22;;;;;;;4.60;4.10;;;;;19.00;101883.00;;;;5052745;28;20200;-77
2023/05/08 01:42:53;;;;;;;5.20;4.70;;;;;19.10;101880.00;;;;5061464;28;20227;-76
2023/05/08 01:45:25;;;;;;;5.03;4.57;;;;;19.00;101883.00;;;;5054727;28;20199;-77
2023/05/08 01:48:04;;;;;;;6.03;4.47;;;;;18.90;101883.00;;;;5049682;28;20669;-76
2023/05/08 01:50:37;;;;;;;4.80;4.15;;;;;19.00;101879.00;;;;5051751;28;20199;-77
2023/05/08 01:53:12;;;;;;;5.93;4.70;;;;;18.90;101888.00;;;;5055921;28;20654;-76
2023/05/08 01:55:42;;;;;;;5.43;4.80;;;;;18.90;101885.00;;;;5052688;28;20610;-77
2023/05/08 01:58:11;;;;;;;5.10;4.30;;;;;18.90;101883.00;;;;5055332;28;20654;-77
2023/05/08 02:00:41;;;;;;;4.38;3.97;;;;;18.90;101884.00;;;;5059012;28;20295;-76
2023/05/08 02:03:11;;;;;;;4.63;4.22;;;;;18.90;101893.00;;;;5053011;28;20219;-77
2023/05/08 02:05:39;;;;;;;5.43;4.93;;;;;18.90;101892.00;;;;5060513;28;20211;-77
2023/05/08 02:08:08;;;;;;;5.38;4.88;;;;;18.90;101888.00;;;;5049899;28;20632;-77
2023/05/08 02:10:37;;;;;;;5.15;4.65;;;;;18.80;101889.00;;;;5051425;28;20200;-76
2023/05/08 02:13:06;;;;;;;5.38;4.88;;;;;18.80;101890.00;;;;5051279;28;20207;-77
2023/05/08 02:15:35;;;;;;;4.90;4.43;;;;;18.80;101888.00;;;;5055760;28;20678;-77
2023/05/08 02:18:04;;;;;;;5.00;4.28;;;;;18.80;101890.00;;;;5051091;28;20572;-77
2023/05/08 02:20:33;;;;;;;5.32;4.80;;;;;18.70;101898.00;;;;5057108;28;20206;-77
2023/05/08 02:23:02;;;;;;;5.00;4.50;;;;;18.70;101902.00;;;;5056328;28;20226;-77
2023/05/08 02:25:30;;;;;;;5.07;4.57;;;;;18.70;101897.00;;;;5049952;28;20406;-77
2023/05/08 02:27:59;;;;;;;4.30;3.90;;;;;18.70;101900.00;;;;5049997;28;20666;-77
2023/05/08 02:30:27;;;;;;;4.70;4.30;;;;;18.70;101899.00;;;;5051289;28;20446;-76
2023/05/08 02:32:56;;;;;;;5.40;4.90;;;;;18.60;101905.00;;;;5057264;28;20683;-76
2023/05/08 02:35:26;;;;;;;5.10;4.70;;;;;18.60;101899.00;;;;5050824;28;20230;-77
2023/05/08 02:37:57;;;;;;;6.03;5.45;;;;;18.60;101903.00;;;;5052038;28;20234;-77
2023/05/08 02:40:28;;;;;;;6.05;5.50;;;;;18.50;101900.00;;;;5052405;28;20196;-77
2023/05/08 02:42:55;;;;;;;5.75;5.22;;;;;18.60;101907.00;;;;5051229;28;20719;-77
2023/05/08 02:45:26;;;;;;;4.63;4.22;;;;;18.50;101905.00;;;;5062311;28;20207;-77
2023/05/08 02:47:59;;;;;;;5.88;5.28;;;;;18.50;101906.00;;;;5052903;28;20196;-77
2023/05/08 02:50:35;;;;;;;5.25;4.55;;;;;18.50;101903.00;;;;5056831;28;20196;-77
2023/05/08 02:53:09;;;;;;;6.15;5.35;;;;;18.50;101900.00;;;;5055173;28;20199;-76
2023/05/08 02:55:42;;;;;;;5.50;4.78;;;;;18.50;101903.00;;;;5059906;28;20202;-77
2023/05/08 02:58:17;;;;;;;6.15;5.55;;;;;18.40;101894.00;;;;5059258;28;20208;-76
2023/05/08 03:00:50;;;;;;;5.80;5.20;;;;;18.40;101894.00;;;;5056243;28;20210;-76
2023/05/08 03:03:22;;;;;;;5.65;5.15;;;;;18.40;101896.00;;;;5060156;28;20230;-76
2023/05/08 03:05:53;;;;;;;5.63;5.13;;;;;18.40;101890.00;;;;5052798;28;20946;-76
2023/05/08 03:08:28;;;;;;;5.93;5.32;;;;;18.30;101889.00;;;;5053415;28;20199;-78
2023/05/08 03:11:01;;;;;;;5.40;4.90;;;;;18.30;101895.00;;;;5055383;28;20652;-77
2023/05/08 03:13:32;;;;;;;5.80;5.28;;;;;18.40;101897.00;;;;5053264;28;20199;-78
2023/05/08 03:16:02;;;;;;;5.72;5.22;;;;;18.30;101881.00;;;;5052363;28;20215;-78
2023/05/08 03:18:34;;;;;;;6.43;4.95;;;;;18.30;101883.00;;;;5058665;28;20202;-78
2023/05/08 03:21:04;;;;;;;6.15;5.55;;;;;18.30;101881.00;;;;5060344;28;20198;-78
2023/05/08 03:23:35;;;;;;;5.80;5.22;;;;;18.30;101876.00;;;;5055065;28;20258;-77
2023/05/08 03:26:04;;;;;;;6.00;5.43;;;;;18.30;101877.00;;;;5057413;28;20207;-78
2023/05/08 03:28:32;;;;;;;6.07;5.47;;;;;18.20;101879.00;;;;5052407;28;20227;-77
2023/05/08 03:31:00;;;;;;;7.10;6.10;;;;;18.20;101877.00;;;;5049729;28;20329;-78
2023/05/08 03:33:30;;;;;;;10.00;5.80;;;;;18.20;101878.00;;;;5047622;28;20625;-78
2023/05/08 03:35:59;;;;;;;7.38;6.47;;;;;18.20;101882.00;;;;5055524;28;20198;-77
2023/05/08 03:38:26;;;;;;;6.82;6.13;;;;;18.20;101882.00;;;;5052313;28;20199;-77
2023/05/08 03:40:55;;;;;;;7.18;6.47;;;;;18.20;101883.00;;;;5047933;28;20194;-78
2023/05/08 03:43:23;;;;;;;8.45;6.07;;;;;18.20;101879.00;;;;5054039;28;20215;-78
2023/05/08 03:45:51;;;;;;;6.95;6.32;;;;;18.10;101870.00;;;;5047246;28;20207;-78
2023/05/08 03:48:21;;;;;;;7.18;6.47;;;;;18.10;101874.00;;;;5055576;28;20284;-77
2023/05/08 03:50:50;;;;;;;7.28;6.57;;;;;18.10;101874.00;;;;5046613;28;20199;-78
2023/05/08 03:53:17;;;;;;;7.03;6.28;;;;;18.10;101874.00;;;;5051623;28;20210;-77
2023/05/08 03:55:44;;;;;;;7.00;6.28;;;;;18.10;101869.00;;;;5058147;28;20206;-78
2023/05/08 03:58:21;;;;;;;6.78;6.18;;;;;18.00;101872.00;;;;5054359;28;20555;-78
2023/05/08 04:00:59;;;;;;;6.38;5.65;;;;;18.00;101865.00;;;;5051153;28;20187;-78
2023/05/08 04:03:40;;;;;;;7.00;6.30;;;;;18.00;101865.00;;;;5052525;28;20246;-78
2023/05/08 04:06:14;;;;;;;6.38;5.78;;;;;18.00;101875.00;;;;5047997;28;20666;-78
2023/05/08 04:08:46;;;;;;;6.50;5.57;;;;;18.00;101884.00;;;;5047803;28;20192;-77
2023/05/08 04:11:30;;;;;;;6.40;5.82;;;;;18.00;101877.00;;;;5059800;28;20204;-78
2023/05/08 04:14:05;;;;;;;6.18;5.57;;;;;17.90;101881.00;;;;5050866;28;20191;-78
2023/05/08 04:16:37;;;;;;;6.20;5.60;;;;;18.00;101884.00;;;;5046321;28;20618;-78
2023/05/08 04:19:10;;;;;;;6.47;5.88;;;;;17.90;101876.00;;;;5056666;28;20195;-78
2023/05/08 04:21:42;;;;;;;5.97;5.38;;;;;17.90;101886.00;;;;5055399;28;20293;-78
2023/05/08 04:24:12;;;;;;;7.45;5.90;;;;;18.00;101891.00;;;;5056073;28;20275;-78
2023/05/08 04:26:41;;;;;;;6.20;5.60;;;;;18.00;101884.00;;;;5047353;28;20212;-78
2023/05/08 04:29:10;;;;;;;6.20;5.60;;;;;18.00;101885.00;;;;5056523;28;20199;-78
2023/05/08 04:31:40;;;;;;;6.70;5.63;;;;;18.00;101889.00;;;;5054046;28;20199;-78
2023/05/08 04:34:08;;;;;;;5.13;4.60;;;;;18.00;101886.00;;;;5048677;28;20246;-78
2023/05/08 04:36:35;;;;;;;5.90;5.30;;;;;18.00;101903.00;;;;5048460;28;20195;-78
2023/05/08 04:39:03;;;;;;;5.80;5.30;;;;;18.00;101891.00;;;;5046674;28;20657;-78
2023/05/08 04:41:31;;;;;;;5.97;5.45;;;;;18.00;101884.00;;;;5055407;28;20226;-78
2023/05/08 04:43:58;;;;;;;5.68;5.05;;;;;18.00;101888.00;;;;5049232;28;20219;-78
2023/05/08 04:46:27;;;;;;;5.97;5.38;;;;;18.00;101887.00;;;;5056314;28;20199;-78
2023/05/08 04:48:54;;;;;;;6.95;6.25;;;;;18.10;101887.00;;;;5054592;28;20192;-77
2023/05/08 04:51:21;;;;;;;6.45;5.50;;;;;18.10;101898.00;;;;5052662;28;20719;-77
2023/05/08 04:53:49;;;;;;;6.57;5.95;;;;;18.10;101898.00;;;;5054131;28;20206;-77
2023/05/08 04:56:18;;;;;;;6.18;5.60;;;;;18.20;101898.00;;;;5051801;28;20467;-77
2023/05/08 04:58:45;;;;;;;5.20;4.70;;;;;18.20;101903.00;;;;5056536;28;20675;-78
2023/05/08 05:01:12;;;;;;;8.32;5.95;;;;;18.20;101903.00;;;;5062131;28;20195;-78
2023/05/08 05:03:41;;;;;;;6.70;5.18;;;;;18.30;101908.00;;;;5054024;28;20219;-77
2023/05/08 05:06:08;;;;;;;6.88;5.38;;;;;18.30;101905.00;;;;5060399;28;20206;-76
2023/05/08 05:08:35;;;;;;;7.65;5.57;;;;;18.40;101906.00;;;;5050552;28;20224;-77
2023/05/08 05:11:03;;;;;;;6.38;5.70;;;;;18.40;101916.00;;;;5057031;28;20202;-77
2023/05/08 05:13:30;;;;;;;6.20;5.55;;;;;18.50;101921.00;;;;5058133;28;20199;-77
2023/05/08 05:15:59;;;;;;;6.13;5.57;;;;;18.60;101927.00;;;;5065325;28;20199;-77
2023/05/08 05:18:27;;;;;;;6.32;5.60;;;;;18.70;101929.00;;;;5060070;28;20203;-77
2023/05/08 05:20:58;;;;;;;5.63;5.13;;;;;18.70;101928.00;;;;5045850;28;20191;-77
2023/05/08 05:23:25;;;;;;;6.30;5.70;;;;;18.90;101924.00;;;;5050916;28;20287;-77
2023/05/08 05:25:53;;;;;;;5.53;4.95;;;;;18.90;101918.00;;;;5058628;28;20665;-77
2023/05/08 05:28:20;;;;;;;5.32;4.82;;;;;19.00;101928.00;;;;5056581;28;20201;-77
2023/05/08 05:30:48;;;;;;;5.80;5.20;;;;;19.00;101936.00;;;;5053866;28;20196;-77
2023/05/08 05:33:15;;;;;;;6.05;4.90;;;;;19.10;101932.00;;;;5060256;28;20199;-77
2023/05/08 05:35:42;;;;;;;9.07;5.60;;;;;19.20;101929.00;;;;5050154;28;20664;-76
2023/05/08 05:38:11;;;;;;;7.72;5.63;;;;;19.20;101937.00;;;;5062215;28;20276;-76
2023/05/08 05:40:38;;;;;;;6.75;6.05;;;;;19.30;101934.00;;;;5059759;28;20187;-77
2023/05/08 05:43:05;;;;;;;7.60;5.43;;;;;19.40;101940.00;;;;5050048;28;20222;-76
2023/05/08 05:45:33;;;;;;;6.40;5.43;;;;;19.50;101942.00;;;;5055026;28;20206;-76
2023/05/08 05:48:00;;;;;;;6.07;4.97;;;;;19.60;101940.00;;;;5057467;28;20669;-76
2023/05/08 05:50:27;;;;;;;6.00;5.50;;;;;19.60;101943.00;;;;5067758;28;20219;-76
2023/05/08 05:52:55;;;;;;;5.85;5.20;;;;;19.70;101945.00;;;;5051190;28;20240;-75
2023/05/08 05:55:23;;;;;;;7.53;5.68;;;;;19.70;101953.00;;;;5057798;28;20290;-76
2023/05/08 05:57:51;;;;;;;6.47;4.90;;;;;19.80;101949.00;;;;5052920;28;20640;-76
2023/05/08 06:00:20;;;;;;;5.47;4.97;;;;;19.90;101953.00;;;;5051032;28;20653;-76
2023/05/08 06:02:47;;;;;;;5.47;4.97;;;;;20.00;101951.00;;;;5060458;28;20200;-75
2023/05/08 06:05:15;;;;;;;6.25;4.90;;;;;20.10;101953.00;;;;5050832;28;20231;-76
2023/05/08 06:07:42;;;;;;;7.97;5.63;;;;;20.10;101956.00;;;;5050087;28;20231;-75
2023/05/08 06:10:10;;;;;;;5.85;5.28;;;;;20.20;101960.00;;;;5056075;28;20203;-75
2023/05/08 06:12:39;;;;;;;8.93;6.35;;;;;20.30;101950.00;;;;5055031;28;20945;-76
2023/05/08 06:15:08;;;;;;;8.43;7.32;;;;;20.50;101955.00;;;;5049432;28;20206;-76
2023/05/08 06:17:35;;;;;;;8.45;7.57;;;;;20.60;101953.00;;;;5051101;28;20191;-76
2023/05/08 06:20:03;;;;;;;9.02;8.13;;;;;20.70;101949.00;;;;5048831;28;20203;-76
2023/05/08 06:22:30;;;;;;;8.20;7.25;;;;;20.80;101951.00;;;;5051062;28;20203;-76
2023/05/08 06:24:58;;;;;;;9.95;8.77;;;;;20.90;101952.00;;;;5054868;28;20218;-76
2023/05/08 06:27:26;;;;;;;9.35;8.35;;;;;20.90;101960.00;;;;5054707;28;20545;-76
2023/05/08 06:29:54;;;;;;;9.20;7.80;;;;;21.00;101956.00;;;;5062035;28;20195;-76
2023/05/08 06:32:22;;;;;;;9.73;8.40;;;;;21.10;101964.00;;;;5048669;28;20204;-76
2023/05/08 06:34:49;;;;;;;9.95;8.50;;;;;21.20;101961.00;;;;5048154;28;20242;-76
2023/05/08 06:37:16;;;;;;;10.70;8.40;;;;;21.20;101963.00;;;;5058759;28;20198;-76
2023/05/08 06:39:44;;;;;;;10.18;8.43;;;;;21.30;101958.00;;;;5050497;28;20191;-76
2023/05/08 06:42:11;;;;;;;10.02;8.77;;;;;21.40;101964.00;;;;5050516;28;20195;-76
2023/05/08 06:44:39;;;;;;;9.45;8.18;;;;;21.40;101969.00;;;;5053289;28;20736;-76
2023/05/08 06:47:08;;;;;;;8.95;7.80;;;;;21.50;101959.00;;;;5054913;28;20236;-76
2023/05/08 06:49:36;;;;;;;9.88;8.45;;;;;21.50;101963.00;;;;5055343;28;20253;-76
2023/05/08 06:52:04;;;;;;;9.63;7.85;;;;;21.60;101971.00;;;;5048683;28;20196;-76
2023/05/08 06:54:31;;;;;;;8.93;7.45;;;;;21.70;101966.00;;;;5050422;28;20579;-76
2023/05/08 06:56:58;;;;;;;9.43;8.25;;;;;21.80;101979.00;;;;5047769;28;20198;-76
2023/05/08 06:59:25;;;;;;;8.60;7.80;;;;;21.90;101975.00;;;;5051500;28;20681;-75
2023/05/08 07:01:53;;;;;;;9.73;7.82;;;;;21.90;101972.00;;;;5051251;28;20234;-76
2023/05/08 07:04:21;;;;;;;9.13;7.85;;;;;22.00;101972.00;;;;5050990;28;20219;-76
2023/05/08 07:06:48;;;;;;;9.93;8.45;;;;;22.10;101974.00;;;;5047583;28;20680;-75
2023/05/08 07:09:16;;;;;;;9.95;8.45;;;;;22.10;101973.00;;;;5049379;28;20298;-75
2023/05/08 07:11:43;;;;;;;9.98;8.95;;;;;22.20;101969.00;;;;5058844;28;20642;-75
2023/05/08 07:14:10;;;;;;;11.90;10.57;;;;;22.30;101971.00;;;;5056257;28;20569;-75
2023/05/08 07:16:38;;;;;;;10.77;9.40;;;;;22.40;101974.00;;;;5054653;28;20200;-76
2023/05/08 07:19:05;;;;;;;10.57;9.27;;;;;22.40;101976.00;;;;5054681;28;20202;-75
2023/05/08 07:21:33;;;;;;;13.90;10.88;;;;;22.40;101975.00;;;;5052226;28;20204;-76
2023/05/08 07:24:01;;;;;;;10.93;9.75;;;;;22.50;101976.00;;;;5047851;28;20689;-76
2023/05/08 07:26:28;;;;;;;9.80;8.80;;;;;22.50;101970.00;;;;5055471;28;20198;-76
2023/05/08 07:28:55;;;;;;;10.43;9.02;;;;;22.50;101973.00;;;;5058404;28;20195;-76
2023/05/08 07:31:23;;;;;;;11.00;9.90;;;;;22.60;101972.00;;;;5063850;28;20199;-76
2023/05/08 07:33:50;;;;;;;10.77;9.68;;;;;22.60;101973.00;;;;5058151;28;20635;-76
2023/05/08 07:36:17;;;;;;;10.32;9.30;;;;;22.70;101966.00;;;;5055053;28;20760;-76
2023/05/08 07:38:46;;;;;;;10.60;9.10;;;;;22.70;101968.00;;;;5050465;28;20693;-76
2023/05/08 07:41:13;;;;;;;10.43;9.25;;;;;22.70;101966.00;;;;5055465;28;20278;-76
2023/05/08 07:43:42;;;;;;;10.98;9.70;;;;;22.70;101978.00;;;;5048474;28;20623;-76
2023/05/08 07:46:15;;;;;;;9.50;8.60;;;;;22.80;101970.00;;;;5049301;28;20199;-76
2023/05/08 07:48:42;;;;;;;10.50;9.25;;;;;22.80;101968.00;;;;5049627;28;20199;-77
2023/05/08 07:51:10;;;;;;;11.55;9.02;;;;;22.80;101971.00;;;;5051308;28;20204;-76
2023/05/08 07:53:38;;;;;;;10.57;9.07;;;;;22.80;101976.00;;;;5054379;28;20313;-75
2023/05/08 07:56:07;;;;;;;9.15;8.00;;;;;22.90;101973.00;;;;5058280;28;20203;-76
2023/05/08 07:58:34;;;;;;;10.02;8.30;;;;;22.90;101971.00;;;;5055282;28;20281;-76
2023/05/08 08:01:02;;;;;;;11.23;9.57;;;;;22.90;101978.00;;;;5057614;28;20192;-75
2023/05/08 08:03:29;;;;;;;11.88;9.88;;;;;22.90;101981.00;;;;5054642;28;20658;-76
2023/05/08 08:05:57;;;;;;;14.10;10.10;;;;;23.00;101973.00;;;;5052727;28;20649;-76
2023/05/08 08:08:24;;;;;;;12.15;10.18;;;;;22.90;101978.00;;;;5055379;28;20528;-75
2023/05/08 08:10:51;;;;;;;13.48;11.43;;;;;23.00;101978.00;;;;5052145;28;20556;-76
2023/05/08 08:13:20;;;;;;;13.52;10.70;;;;;23.00;101976.00;;;;5054610;28;20684;-76
2023/05/08 08:15:47;;;;;;;12.77;10.38;;;;;23.10;101978.00;;;;5052276;28;20204;-75
2023/05/08 08:18:14;;;;;;;12.82;9.95;;;;;23.10;101979.00;;;;5056163;28;20206;-76
2023/05/08 08:20:43;;;;;;;13.40;10.15;;;;;23.20;101981.00;;;;5056433;28;20565;-76
2023/05/08 08:23:10;;;;;;;12.60;10.70;;;;;23.20;101975.00;;;;5057833;28;20206;-76
2023/05/08 08:25:37;;;;;;;13.63;11.57;;;;;23.30;101974.00;;;;5053852;28;20230;-76
2023/05/08 08:28:05;;;;;;;13.52;11.02;;;;;23.40;101978.00;;;;5053891;28;20284;-76
2023/05/08 08:30:33;;;;;;;16.05;11.88;;;;;23.40;101971.00;;;;5052291;28;20203;-76
2023/05/08 08:33:01;;;;;;;12.77;11.30;;;;;23.50;101963.00;;;;5054467;28;20208;-76
2023/05/08 08:35:29;;;;;;;11.93;10.45;;;;;23.60;101958.00;;;;5059539;28;20608;-76
2023/05/08 08:37:56;;;;;;;13.70;11.40;;;;;23.80;101964.00;;;;5051631;28;20191;-77
2023/05/08 08:40:24;;;;;;;13.73;11.75;;;;;23.90;101969.00;;;;5063640;28;20254;-76
2023/05/08 08:42:51;;;;;;;14.45;12.45;;;;;24.00;101964.00;;;;5052853;28;20218;-76
2023/05/08 08:45:19;;;;;;;14.35;11.25;;;;;24.00;101965.00;;;;5057581;28;20230;-76
2023/05/08 08:47:51;;;;;;;14.70;11.13;;;;;24.10;101965.00;;;;5059554;28;20680;-76
2023/05/08 08:50:20;;;;;;;13.93;11.20;;;;;24.20;101967.00;;;;5054149;28;20207;-76
2023/05/08 08:52:53;;;;;;;14.38;11.70;;;;;24.20;101968.00;;;;5058932;28;20722;-76
2023/05/08 08:55:22;;;;;;;13.32;11.93;;;;;24.30;101968.00;;;;5054638;28;20200;-76
2023/05/08 08:57:57;;;;;;;14.88;12.23;;;;;24.30;101970.00;;;;5061200;28;20196;-75
2023/05/08 09:00:30;;;;;;;12.55;10.98;;;;;24.40;101969.00;;;;5051870;28;20200;-76
2023/05/08 09:02:59;;;;;;;14.77;12.38;;;;;24.50;101977.00;;;;5055079;28;20237;-76
2023/05/08 09:05:27;;;;;;;17.98;12.27;;;;;24.50;101977.00;;;;5048895;28;20224;-76
2023/05/08 09:07:55;;;;;;;14.30;11.60;;;;;24.60;101975.00;;;;5053942;28;20286;-76
2023/05/08 09:10:24;;;;;;;16.33;12.50;;;;;24.60;101974.00;;;;5051798;28;20206;-76
2023/05/08 09:12:51;;;;;;;14.52;11.52;;;;;24.70;101968.00;;;;5060071;28;20202;-76
2023/05/08 09:15:19;;;;;;;14.25;12.50;;;;;24.70;101977.00;;;;5053940;28;20206;-76
2023/05/08 09:17:46;;;;;;;14.02;12.48;;;;;24.80;101974.00;;;;5052567;28;20199;-76
2023/05/08 09:20:16;;;;;;;14.38;11.85;;;;;24.90;101977.00;;;;5057268;28;20191;-77
2023/05/08 09:22:44;;;;;;;16.25;13.07;;;;;25.00;101976.00;;;;5054958;28;20573;-77
2023/05/08 09:25:11;;;;;;;16.73;12.23;;;;;25.10;101977.00;;;;5060748;28;20552;-79
2023/05/08 09:27:38;;;;;;;18.85;13.32;;;;;25.10;101980.00;;;;5055621;28;20195;-77
2023/05/08 09:30:08;;;;;;;17.20;13.93;;;;;25.10;101980.00;;;;5050118;28;20196;-77
2023/05/08 09:32:37;;;;;;;17.80;13.48;;;;;25.20;101976.00;;;;5054409;28;20202;-77
2023/05/08 09:35:06;;;;;;;18.38;14.00;;;;;25.20;101982.00;;;;5057528;28;20241;-77
2023/05/08 09:37:39;;;;;;;20.98;15.40;;;;;25.20;101977.00;;;;5056032;28;21220;-77
2023/05/08 09:40:24;;;;;;;22.13;15.55;;;;;25.20;101974.00;;;;5051070;28;20216;-76
2023/05/08 09:42:52;;;;;;;20.98;15.88;;;;;25.30;101982.00;;;;5053287;28;20203;-77
2023/05/08 09:45:30;;;;;;;27.88;18.35;;;;;25.20;101977.00;;;;5050866;28;20223;-77
2023/05/08 09:47:57;;;;;;;25.90;17.73;;;;;25.30;101981.00;;;;5055654;28;20550;-75
2023/05/08 09:50:26;;;;;;;30.17;19.13;;;;;25.40;101977.00;;;;5052634;28;20199;-75
2023/05/08 09:52:55;;;;;;;28.25;19.98;;;;;25.40;101980.00;;;;5049980;28;20208;-75
2023/05/08 09:55:22;;;;;;;30.50;21.25;;;;;25.50;101978.00;;;;5055799;28;20223;-75
2023/05/08 09:57:55;;;;;;;27.00;18.63;;;;;25.40;101986.00;;;;5059025;28;20321;-75
2023/05/08 10:00:23;;;;;;;28.40;19.50;;;;;25.50;101986.00;;;;5050267;28;20215;-75
2023/05/08 10:02:59;;;;;;;30.30;19.38;;;;;25.50;101990.00;;;;5052313;28;20204;-75
2023/05/08 10:05:28;;;;;;;28.38;18.63;;;;;25.60;101994.00;;;;5057820;28;20207;-76
2023/05/08 10:07:57;;;;;;;28.55;19.17;;;;;25.60;101987.00;;;;5054927;28;20281;-77
2023/05/08 10:10:26;;;;;;;28.27;19.65;;;;;25.70;101994.00;;;;5061326;28;20942;-75
2023/05/08 10:12:54;;;;;;;26.67;17.75;;;;;25.70;102003.00;;;;5054075;28;20202;-76
2023/05/08 10:15:24;;;;;;;30.85;21.33;;;;;25.80;101996.00;;;;5049507;28;20206;-75
2023/05/08 10:17:57;;;;;;;29.20;18.85;;;;;25.80;101992.00;;;;5049083;28;20207;-75
2023/05/08 10:20:29;;;;;;;26.55;18.70;;;;;25.80;101994.00;;;;5053017;28;20204;-75
2023/05/08 10:22:58;;;;;;;29.67;19.58;;;;;25.80;101993.00;;;;5057565;28;20200;-75
2023/05/08 10:25:30;;;;;;;31.73;21.67;;;;;25.80;101989.00;;;;5051543;28;20710;-75
2023/05/08 10:28:07;;;;;;;31.25;21.52;;;;;25.70;101991.00;;;;5050999;28;20225;-75
2023/05/08 10:30:38;;;;;;;32.28;22.15;;;;;25.70;101989.00;;;;5054423;28;20195;-75
2023/05/08 10:33:10;;;;;;;33.35;22.98;;;;;25.70;101993.00;;;;5050386;28;20203;-74
2023/05/08 10:35:38;;;;;;;33.50;23.05;;;;;25.70;101980.00;;;;5050758;28;20195;-76
2023/05/08 10:38:09;;;;;;;31.65;22.15;;;;;25.70;101978.00;;;;5048962;28;20196;-77
2023/05/08 10:40:37;;;;;;;31.60;21.63;;;;;25.80;101981.00;;;;5054768;28;20210;-74
2023/05/08 10:43:06;;;;;;;34.00;23.70;;;;;25.80;101985.00;;;;5050918;28;20230;-75
2023/05/08 10:45:34;;;;;;;30.08;21.90;;;;;25.80;101978.00;;;;5052775;28;20715;-75
2023/05/08 10:48:10;;;;;;;30.60;22.08;;;;;25.80;101984.00;;;;5065114;28;20214;-75
2023/05/08 10:50:51;;;;;;;29.85;21.25;;;;;25.80;101982.00;;;;5058256;28;20191;-75
2023/05/08 10:53:24;;;;;;;25.67;18.95;;;;;25.80;101977.00;;;;5048186;28;20687;-75
2023/05/08 10:55:52;;;;;;;26.60;19.55;;;;;25.90;101979.00;;;;5048322;28;20204;-78
2023/05/08 10:58:30;;;;;;;26.95;19.17;;;;;25.70;101973.00;;;;5058462;28;20203;-75
2023/05/08 11:01:15;;;;;;;32.58;21.58;;;;;25.70;101976.00;;;;5053742;28;20205;-75
2023/05/08 11:03:45;;;;;;;31.75;20.17;;;;;25.80;101979.00;;;;5058095;28;20203;-75
2023/05/08 11:06:13;;;;;;;33.35;20.92;;;;;25.80;101976.00;;;;5047873;28;20227;-76
2023/05/08 11:08:50;;;;;;;31.95;22.45;;;;;25.70;101974.00;;;;5063719;28;20195;-75
2023/05/08 11:11:32;;;;;;;28.55;20.65;;;;;25.70;101968.00;;;;5057825;28;20218;-75
2023/05/08 11:14:11;;;;;;;28.02;20.33;;;;;25.70;101967.00;;;;5051030;28;20198;-75
2023/05/08 11:17:05;;;;;;;32.75;20.95;;;;;25.70;101960.00;;;;5055230;28;20350;-76
2023/05/08 11:19:32;;;;;;;28.50;19.90;;;;;25.80;101960.00;;;;5051748;28;20711;-76
2023/05/08 11:22:20;;;;;;;30.00;20.95;;;;;25.70;101954.00;;;;5055260;28;20286;-76
2023/05/08 11:24:52;;;;;;;35.20;21.15;;;;;25.90;101952.00;;;;5051857;28;20191;-76
2023/05/08 11:27:31;;;;;;;28.55;20.13;;;;;26.00;101955.00;;;;5062892;28;20198;-76
2023/05/08 11:30:21;;;;;;;31.20;20.50;;;;;25.90;101956.00;;;;5052812;28;20217;-76
2023/05/08 11:33:12;;;;;;;31.17;19.73;;;;;25.90;101947.00;;;;5056387;28;20200;-76
2023/05/08 11:35:48;;;;;;;24.20;18.92;;;;;26.00;101946.00;;;;5048630;28;20211;-77
2023/05/08 11:38:20;;;;;;;25.40;18.38;;;;;26.10;101944.00;;;;5052723;28;20241;-77
2023/05/08 11:40:57;;;;;;;26.00;18.70;;;;;26.00;101942.00;;;;5053487;28;20198;-75
2023/05/08 11:44:13;;;;;;;27.15;19.15;;;;;26.00;101943.00;;;;5048598;28;20634;-75
2023/05/08 11:46:43;;;;;;;23.05;16.92;;;;;26.20;101939.00;;;;4981140;28;20594;-75
2023/05/08 11:49:16;;;;;;;23.38;17.30;;;;;26.20;101939.00;;;;4974495;28;20201;-74
2023/05/08 11:51:45;;;;;;;25.38;18.25;;;;;26.20;101934.00;;;;5017455;28;20191;-76
2023/05/08 11:54:17;;;;;;;22.88;17.88;;;;;26.20;101934.00;;;;5059962;28;20198;-75
2023/05/08 11:56:48;;;;;;;24.20;15.10;;;;;26.30;101939.00;;;;5051580;28;20199;-76
2023/05/08 11:59:15;;;;;;;24.20;17.65;;;;;26.30;101936.00;;;;5055506;28;20214;-75
2023/05/08 12:01:43;;;;;;;21.67;16.17;;;;;26.30;101935.00;;;;5059785;28;20191;-75
2023/05/08 12:04:12;;;;;;;25.27;17.58;;;;;26.40;101936.00;;;;5060987;28;20253;-75
2023/05/08 12:06:41;;;;;;;25.95;17.85;;;;;26.40;101938.00;;;;5064321;28;20234;-75
2023/05/08 12:09:13;;;;;;;23.75;17.13;;;;;26.50;101935.00;;;;5049668;28;20203;-76
2023/05/08 12:11:42;;;;;;;21.35;16.80;;;;;26.60;101938.00;;;;5060817;28;20202;-76
2023/05/08 12:14:12;;;;;;;20.67;16.67;;;;;26.70;101934.00;;;;5058649;28;20202;-76
2023/05/08 12:16:40;;;;;;;20.92;15.85;;;;;26.80;101935.00;;;;5049182;28;20196;-76